Diyarbakir, Turkey
Current Conditions -  °F | °C
As of 8:20 PM on Friday 31 Oct 2014 (Local Time) from LTCC Reporting Station
Broken Clouds Broken Clouds  
Wind Chill: 50°   Ceiling: 10000
Heat Index: 50°   Visibility: 4mi
Dew Point: 50°   Wind: 0mph
Humidity: 100%   Direction: NA
Pressure: 29.91"   Gusts: NA
Location:  37.92°N, 40.23°E
Report Text: LTCC 311720Z 00000KT 6000 SCT040 BKN100 10/10 Q1013 NOSIG
Loading
Personal Weather Stations






























Interactive Weather Map
Tropical Storm Tracking
New forecast layout! Learn more

10-Day Weather Forecast

Advertisements
Track Severe Weather on mobile